createdAt,value
2019-03-30T00:00:22.353Z,21.62
2019-03-30T00:01:27.414Z,20.77
2019-03-30T00:02:30.860Z,26.45
2019-03-30T00:03:34.291Z,25.00
2019-03-30T00:04:37.720Z,24.07
2019-03-30T00:05:41.285Z,23.85
2019-03-30T00:06:44.802Z,21.52
2019-03-30T00:07:48.258Z,24.40
2019-03-30T00:08:51.690Z,23.42
2019-03-30T00:09:55.112Z,25.57
2019-03-30T00:10:58.558Z,28.77
2019-03-30T00:12:01.983Z,24.67
2019-03-30T00:13:05.719Z,21.55
2019-03-30T00:14:09.221Z,22.35
2019-03-30T00:15:12.727Z,21.10
2019-03-30T00:16:16.221Z,22.87
2019-03-30T00:17:19.651Z,23.30
2019-03-30T00:18:23.098Z,22.85
2019-03-30T00:19:34.691Z,23.02
2019-03-30T00:20:31.682Z,22.80
2019-03-30T00:21:35.114Z,23.22
2019-03-30T00:22:38.544Z,21.90
2019-03-30T00:23:41.992Z,22.30
2019-03-30T00:24:45.448Z,19.70
2019-03-30T00:25:49.018Z,19.80
2019-03-30T00:26:52.456Z,19.73
2019-03-30T00:27:55.887Z,18.70
2019-03-30T00:28:59.342Z,18.27
2019-03-30T00:30:02.969Z,19.70
2019-03-30T00:31:06.471Z,18.80
2019-03-30T00:32:09.926Z,18.95
2019-03-30T00:33:13.351Z,20.37
2019-03-30T00:34:16.797Z,18.52
2019-03-30T00:35:20.241Z,19.20
2019-03-30T00:36:23.740Z,23.80
2019-03-30T00:37:27.170Z,23.40
2019-03-30T00:38:30.599Z,23.67
2019-03-30T00:39:34.201Z,23.45
2019-03-30T00:40:37.657Z,35.17
2019-03-30T00:41:41.159Z,35.92
2019-03-30T00:42:44.685Z,31.07
2019-03-30T00:43:48.190Z,25.72
2019-03-30T00:44:51.658Z,41.05
2019-03-30T00:45:55.110Z,40.67
2019-03-30T00:46:58.611Z,40.98
2019-03-30T00:48:02.051Z,42.38
2019-03-30T00:49:05.567Z,47.75
2019-03-30T00:50:09.125Z,44.20
2019-03-30T00:51:12.549Z,41.73
2019-03-30T00:52:16.040Z,39.92
2019-03-30T00:53:19.475Z,37.00
2019-03-30T00:54:22.919Z,38.63
2019-03-30T00:55:26.445Z,36.80
2019-03-30T00:56:29.958Z,33.78
2019-03-30T00:57:33.386Z,31.95
2019-03-30T00:58:36.849Z,31.42
2019-03-30T00:59:40.278Z,32.78
2019-03-30T01:00:43.797Z,29.32
2019-03-30T01:01:47.320Z,28.27
2019-03-30T01:02:50.756Z,23.00
2019-03-30T01:03:54.186Z,20.65
2019-03-30T01:04:57.690Z,20.77
2019-03-30T01:06:01.286Z,21.10
2019-03-30T01:07:04.880Z,21.80
2019-03-30T01:08:08.579Z,21.85
2019-03-30T01:09:12.098Z,22.62
2019-03-30T01:10:15.680Z,21.45
2019-03-30T01:11:19.568Z,22.22
2019-03-30T01:12:23.021Z,22.50
2019-03-30T01:13:26.465Z,21.02
2019-03-30T01:14:29.917Z,23.57
2019-03-30T01:15:33.328Z,23.65
2019-03-30T01:16:36.849Z,31.33
2019-03-30T01:17:40.279Z,25.95
2019-03-30T01:18:43.708Z,26.45
2019-03-30T01:19:47.247Z,29.00
2019-03-30T01:20:50.720Z,31.30
2019-03-30T01:21:56.215Z,28.27
2019-03-30T01:22:59.379Z,28.45
2019-03-30T01:24:02.809Z,26.85
2019-03-30T01:25:10.038Z,24.87
2019-03-30T01:26:13.487Z,28.30
2019-03-30T01:27:16.937Z,19.82
2019-03-30T01:28:20.374Z,19.67
2019-03-30T01:29:23.813Z,19.42
2019-03-30T01:30:27.245Z,18.50
2019-03-30T01:31:30.683Z,17.75
2019-03-30T01:32:35.150Z,17.50
2019-03-30T01:33:38.726Z,18.62
2019-03-30T01:34:42.216Z,17.98
2019-03-30T01:35:45.596Z,18.57
2019-03-30T01:36:49.170Z,18.52
2019-03-30T01:37:52.618Z,18.70
2019-03-30T01:38:56.051Z,19.85
2019-03-30T01:39:59.487Z,19.23
2019-03-30T01:41:02.983Z,22.10
2019-03-30T01:42:06.421Z,21.37
2019-03-30T01:43:09.868Z,22.35
2019-03-30T01:44:13.299Z,18.40
2019-03-30T01:45:16.727Z,21.95
2019-03-30T01:46:20.157Z,23.40
2019-03-30T01:47:23.590Z,24.23
2019-03-30T01:48:27.043Z,24.60
2019-03-30T01:49:30.492Z,25.27
2019-03-30T01:50:33.926Z,30.65
2019-03-30T01:51:37.366Z,31.30
2019-03-30T01:52:40.802Z,31.10
2019-03-30T01:53:44.325Z,28.30
2019-03-30T01:54:47.770Z,25.25
2019-03-30T01:55:51.199Z,32.30
2019-03-30T01:56:54.695Z,29.72
2019-03-30T01:57:58.129Z,30.72
2019-03-30T01:59:01.646Z,28.12
2019-03-30T02:00:10.086Z,25.80
2019-03-30T02:01:13.596Z,29.30
2019-03-30T02:02:17.103Z,29.20
2019-03-30T02:03:20.535Z,26.60
2019-03-30T02:04:24.234Z,27.70
2019-03-30T02:05:27.738Z,28.60
2019-03-30T02:06:31.188Z,33.98
2019-03-30T02:07:34.679Z,32.00
2019-03-30T02:08:38.110Z,32.88
2019-03-30T02:09:41.560Z,31.48
2019-03-30T02:10:45.964Z,33.02
2019-03-30T02:11:49.470Z,27.85
2019-03-30T02:12:52.901Z,24.18
2019-03-30T02:13:56.332Z,21.82
2019-03-30T02:14:59.803Z,23.98
2019-03-30T02:16:03.317Z,25.17
2019-03-30T02:17:06.733Z,25.20
2019-03-30T02:18:10.233Z,25.75
2019-03-30T02:19:13.798Z,26.73
2019-03-30T02:20:30.556Z,26.57
2019-03-30T02:21:28.283Z,25.45
2019-03-30T02:22:31.790Z,24.92
2019-03-30T02:23:35.316Z,26.85
2019-03-30T02:24:38.847Z,24.92
2019-03-30T02:25:42.524Z,24.05
2019-03-30T02:26:45.971Z,21.75
2019-03-30T02:27:49.448Z,21.87
2019-03-30T02:28:52.895Z,18.82
2019-03-30T02:29:56.277Z,19.10
2019-03-30T02:30:59.771Z,18.37
2019-03-30T02:32:03.515Z,18.40
2019-03-30T02:33:07.091Z,17.42
2019-03-30T02:34:10.535Z,18.07
2019-03-30T02:35:14.053Z,17.70
2019-03-30T02:36:17.647Z,28.55
2019-03-30T02:37:21.110Z,21.00
2019-03-30T02:38:24.553Z,18.67
2019-03-30T02:39:28.050Z,19.15
2019-03-30T02:40:31.480Z,18.17
2019-03-30T02:41:34.949Z,19.60
2019-03-30T02:42:38.431Z,17.15
2019-03-30T02:43:41.983Z,17.52
2019-03-30T02:44:45.413Z,16.77
2019-03-30T02:45:48.923Z,18.30
2019-03-30T02:46:52.363Z,18.80
2019-03-30T02:47:55.869Z,19.85
2019-03-30T02:48:59.367Z,20.15
2019-03-30T02:50:02.884Z,19.07
2019-03-30T02:51:06.320Z,19.95
2019-03-30T02:52:09.852Z,19.17
2019-03-30T02:53:13.298Z,19.82
2019-03-30T02:54:16.763Z,19.62
2019-03-30T02:55:20.270Z,18.90
2019-03-30T02:56:23.700Z,20.95
2019-03-30T02:57:27.322Z,24.07
2019-03-30T02:58:30.811Z,21.87
2019-03-30T02:59:34.235Z,20.40
2019-03-30T03:00:37.956Z,19.20
2019-03-30T03:01:41.481Z,17.37
2019-03-30T03:02:44.926Z,16.12
2019-03-30T03:03:48.363Z,16.17
2019-03-30T03:04:51.800Z,15.68
2019-03-30T03:05:55.237Z,17.05
2019-03-30T03:06:58.667Z,16.80
2019-03-30T03:08:02.113Z,17.60
2019-03-30T03:09:08.167Z,20.45
2019-03-30T03:10:12.047Z,22.22
2019-03-30T03:11:15.599Z,23.75
2019-03-30T03:12:18.991Z,21.42
2019-03-30T03:13:22.515Z,18.10
2019-03-30T03:14:25.991Z,18.02
2019-03-30T03:15:29.394Z,16.80
2019-03-30T03:16:32.896Z,17.07
2019-03-30T03:17:36.314Z,16.80
2019-03-30T03:18:39.764Z,17.10
2019-03-30T03:19:43.230Z,16.40
2019-03-30T03:20:46.741Z,16.15
2019-03-30T03:21:50.164Z,16.10
2019-03-30T03:22:53.665Z,17.10
2019-03-30T03:23:57.130Z,15.50
2019-03-30T03:25:00.647Z,17.17
2019-03-30T03:26:04.089Z,15.85
2019-03-30T03:27:07.513Z,15.53
2019-03-30T03:28:10.939Z,16.73
2019-03-30T03:29:14.403Z,18.52
2019-03-30T03:30:18.073Z,19.90
2019-03-30T03:31:21.501Z,26.55
2019-03-30T03:32:25.195Z,24.60
2019-03-30T03:33:28.685Z,21.75
2019-03-30T03:34:32.189Z,20.02
2019-03-30T03:35:35.680Z,16.45
2019-03-30T03:36:39.106Z,16.95
2019-03-30T03:37:46.227Z,17.12
2019-03-30T03:38:47.746Z,16.57
2019-03-30T03:39:51.260Z,17.12
2019-03-30T03:40:54.696Z,18.00
2019-03-30T03:41:58.134Z,24.25
2019-03-30T03:43:01.563Z,23.65
2019-03-30T03:44:05.203Z,26.10
2019-03-30T03:45:08.775Z,25.95
2019-03-30T03:46:12.175Z,26.33
2019-03-30T03:47:15.672Z,24.02
2019-03-30T03:48:19.112Z,22.30
2019-03-30T03:49:22.571Z,23.87
2019-03-30T03:50:29.047Z,22.30
2019-03-30T03:51:33.317Z,21.80
2019-03-30T03:52:37.072Z,21.25
2019-03-30T03:53:40.865Z,17.67
2019-03-30T03:54:44.660Z,17.77
2019-03-30T03:55:48.360Z,17.57
2019-03-30T03:56:52.732Z,17.80
2019-03-30T03:57:56.375Z,19.52
2019-03-30T03:59:01.584Z,20.85
2019-03-30T04:00:06.622Z,21.87
2019-03-30T04:01:10.740Z,22.40
2019-03-30T04:02:16.766Z,23.07
2019-03-30T04:03:21.557Z,25.95
2019-03-30T04:04:27.346Z,29.12
2019-03-30T04:05:31.835Z,26.73
2019-03-30T04:06:36.883Z,28.47
2019-03-30T04:07:41.897Z,26.87
2019-03-30T04:08:47.781Z,25.05
2019-03-30T04:09:54.415Z,22.10
2019-03-30T04:10:59.593Z,22.13
2019-03-30T04:12:06.092Z,21.52
2019-03-30T04:13:11.194Z,19.52
2019-03-30T04:14:16.190Z,24.18
2019-03-30T04:15:24.462Z,24.75
2019-03-30T04:16:28.039Z,22.45
2019-03-30T04:17:31.924Z,23.92
2019-03-30T04:18:35.482Z,23.12
2019-03-30T04:19:38.986Z,23.27
2019-03-30T04:20:42.485Z,20.85
2019-03-30T04:21:45.926Z,21.60
2019-03-30T04:22:49.364Z,20.30
2019-03-30T04:23:54.501Z,23.32
2019-03-30T04:24:58.076Z,26.23
2019-03-30T04:26:01.543Z,23.83
2019-03-30T04:27:05.050Z,17.73
2019-03-30T04:28:08.478Z,17.95
2019-03-30T04:29:11.910Z,17.42
2019-03-30T04:30:15.352Z,18.92
2019-03-30T04:31:18.806Z,20.43
2019-03-30T04:32:22.256Z,19.90
2019-03-30T04:33:28.636Z,24.18
2019-03-30T04:34:32.076Z,22.70
2019-03-30T04:35:35.505Z,21.60
2019-03-30T04:36:38.954Z,22.60
2019-03-30T04:37:42.385Z,23.10
2019-03-30T04:38:45.823Z,23.60
2019-03-30T04:39:49.252Z,25.72
2019-03-30T04:40:52.749Z,26.95
2019-03-30T04:41:56.201Z,24.30
2019-03-30T04:42:59.701Z,22.62
2019-03-30T04:44:03.144Z,24.82
2019-03-30T04:45:08.462Z,26.82
2019-03-30T04:46:11.895Z,24.90
2019-03-30T04:47:15.343Z,23.50
2019-03-30T04:48:18.790Z,24.20
2019-03-30T04:49:22.347Z,22.07
2019-03-30T04:50:25.861Z,22.77
2019-03-30T04:51:29.287Z,25.12
2019-03-30T04:52:32.737Z,23.95
2019-03-30T04:53:36.165Z,23.00
2019-03-30T04:54:39.603Z,21.07
2019-03-30T04:55:43.098Z,21.15
2019-03-30T04:56:46.538Z,20.25
2019-03-30T04:57:50.072Z,19.20
2019-03-30T04:58:53.515Z,18.95
2019-03-30T04:59:56.960Z,18.73
2019-03-30T05:01:00.389Z,17.45
2019-03-30T05:02:03.892Z,17.90
2019-03-30T05:03:07.445Z,18.35
2019-03-30T05:04:10.870Z,17.17
2019-03-30T05:05:14.405Z,16.48
2019-03-30T05:06:17.874Z,18.55
2019-03-30T05:07:21.320Z,19.77
2019-03-30T05:08:24.771Z,20.02
2019-03-30T05:09:28.258Z,21.62
2019-03-30T05:10:31.692Z,20.70
2019-03-30T05:11:35.144Z,18.98
2019-03-30T05:12:38.578Z,22.80
2019-03-30T05:13:42.050Z,23.73
2019-03-30T05:14:45.501Z,19.02
2019-03-30T05:15:48.973Z,19.40
2019-03-30T05:16:52.416Z,20.02
2019-03-30T05:17:55.837Z,18.82
2019-03-30T05:18:59.314Z,21.55
2019-03-30T05:20:03.163Z,20.27
2019-03-30T05:21:06.580Z,21.87
2019-03-30T05:22:13.519Z,19.70
2019-03-30T05:23:15.341Z,21.68
2019-03-30T05:24:18.799Z,24.63
2019-03-30T05:25:22.234Z,23.00
2019-03-30T05:26:25.740Z,24.00
2019-03-30T05:27:29.172Z,23.70
2019-03-30T05:28:32.598Z,19.30
2019-03-30T05:29:36.056Z,20.95
2019-03-30T05:30:39.491Z,18.50
2019-03-30T05:31:42.926Z,17.30
2019-03-30T05:32:46.361Z,18.73
2019-03-30T05:33:49.790Z,20.02
2019-03-30T05:34:53.238Z,21.25
2019-03-30T05:35:56.667Z,22.77
2019-03-30T05:37:00.089Z,19.30
2019-03-30T05:38:03.539Z,22.17
2019-03-30T05:39:07.024Z,19.75
2019-03-30T05:40:10.724Z,18.37
2019-03-30T05:41:14.222Z,16.27
2019-03-30T05:42:17.651Z,17.42
2019-03-30T05:43:21.093Z,17.60
2019-03-30T05:44:24.544Z,16.57
2019-03-30T05:45:27.977Z,17.10
2019-03-30T05:46:31.404Z,16.37
2019-03-30T05:47:34.906Z,16.60
2019-03-30T05:48:38.405Z,15.78
2019-03-30T05:49:41.866Z,15.53
2019-03-30T05:50:45.309Z,15.18
2019-03-30T05:51:48.737Z,15.25
2019-03-30T05:52:52.184Z,15.53
2019-03-30T05:53:55.634Z,15.95
2019-03-30T05:54:59.065Z,14.75
2019-03-30T05:56:02.510Z,15.43
2019-03-30T05:57:05.939Z,13.70
2019-03-30T05:58:09.370Z,14.68
2019-03-30T05:59:12.875Z,13.98
2019-03-30T06:00:18.033Z,15.05
2019-03-30T06:01:21.533Z,14.50
2019-03-30T06:02:24.975Z,14.07
2019-03-30T06:03:28.397Z,15.00
2019-03-30T06:04:31.828Z,14.93
2019-03-30T06:05:35.283Z,15.15
2019-03-30T06:06:38.725Z,13.40
2019-03-30T06:07:42.169Z,14.58
2019-03-30T06:08:45.738Z,15.35
2019-03-30T06:09:49.429Z,14.45
2019-03-30T06:10:52.947Z,13.80
2019-03-30T06:11:56.562Z,14.07
2019-03-30T06:13:00.070Z,13.22
2019-03-30T06:14:03.757Z,12.50
2019-03-30T06:15:08.337Z,12.55
2019-03-30T06:16:11.852Z,13.20
2019-03-30T06:17:15.451Z,12.18
2019-03-30T06:18:18.880Z,13.68
2019-03-30T06:19:22.461Z,12.70
2019-03-30T06:20:25.890Z,13.43
2019-03-30T06:21:29.410Z,12.68
2019-03-30T06:22:40.186Z,13.78
2019-03-30T06:23:44.349Z,12.30
2019-03-30T06:24:47.840Z,12.80
2019-03-30T06:25:51.339Z,12.15
2019-03-30T06:26:54.984Z,13.08
2019-03-30T06:27:58.537Z,12.80
2019-03-30T06:29:02.062Z,11.88
2019-03-30T06:30:22.782Z,11.85
2019-03-30T06:31:26.317Z,11.78
2019-03-30T06:32:29.840Z,11.33
2019-03-30T06:33:33.341Z,12.43
2019-03-30T06:34:36.849Z,13.13
2019-03-30T06:35:40.344Z,12.13
2019-03-30T06:36:43.848Z,12.33
2019-03-30T06:37:47.448Z,11.97
2019-03-30T06:38:50.953Z,11.68
2019-03-30T06:39:54.468Z,11.85
2019-03-30T06:40:57.986Z,11.50
2019-03-30T06:42:01.568Z,13.08
2019-03-30T06:43:07.532Z,11.85
2019-03-30T06:44:10.259Z,12.40
2019-03-30T06:45:14.032Z,12.50
2019-03-30T06:46:17.542Z,11.57
2019-03-30T06:47:21.045Z,11.68
2019-03-30T06:48:24.575Z,11.45
2019-03-30T06:49:28.146Z,11.50
2019-03-30T06:50:31.586Z,11.75
2019-03-30T06:51:35.182Z,11.35
2019-03-30T06:52:42.657Z,11.30
2019-03-30T06:53:43.779Z,12.07
2019-03-30T06:54:47.216Z,10.98
2019-03-30T06:55:50.909Z,12.03
2019-03-30T06:56:54.440Z,12.30
2019-03-30T06:57:57.907Z,13.25
2019-03-30T06:59:01.341Z,13.70
2019-03-30T07:00:06.402Z,14.40
2019-03-30T07:01:09.829Z,13.55
2019-03-30T07:02:13.703Z,14.73
2019-03-30T07:03:17.269Z,16.62
2019-03-30T07:04:20.685Z,14.63
2019-03-30T07:05:24.454Z,12.70
2019-03-30T07:06:29.431Z,12.10
2019-03-30T07:07:33.129Z,10.70
2019-03-30T07:08:37.414Z,10.38
2019-03-30T07:09:41.402Z,11.10
2019-03-30T07:10:45.573Z,9.70
2019-03-30T07:11:51.652Z,9.50
2019-03-30T07:12:55.415Z,10.28
2019-03-30T07:14:01.925Z,10.32
2019-03-30T07:15:05.703Z,10.63
2019-03-30T07:16:09.262Z,10.60
2019-03-30T07:17:13.264Z,10.63
2019-03-30T07:18:17.835Z,10.23
2019-03-30T07:19:22.978Z,10.05
2019-03-30T07:20:28.150Z,10.13
2019-03-30T07:21:31.640Z,10.13
2019-03-30T07:22:35.070Z,10.25
2019-03-30T07:23:38.565Z,9.80
2019-03-30T07:24:42.016Z,10.95
2019-03-30T07:25:45.507Z,9.70
2019-03-30T07:26:48.942Z,10.32
2019-03-30T07:27:52.550Z,10.05
2019-03-30T07:28:56.005Z,10.32
2019-03-30T07:29:59.424Z,9.98
2019-03-30T07:31:02.845Z,9.88
2019-03-30T07:32:06.352Z,9.90
2019-03-30T07:33:09.794Z,11.05
2019-03-30T07:34:13.236Z,10.05
2019-03-30T07:35:16.681Z,10.58
2019-03-30T07:36:20.110Z,11.60
2019-03-30T07:37:23.616Z,10.53
2019-03-30T07:38:27.052Z,10.72
2019-03-30T07:39:30.481Z,11.45
2019-03-30T07:40:34.161Z,10.60
2019-03-30T07:41:37.525Z,11.45
2019-03-30T07:42:40.958Z,10.95
2019-03-30T07:43:44.394Z,10.68
2019-03-30T07:44:47.840Z,11.50
2019-03-30T07:45:51.295Z,10.60
2019-03-30T07:46:54.725Z,11.85
2019-03-30T07:47:58.158Z,12.88
2019-03-30T07:49:01.586Z,13.03
2019-03-30T07:50:08.937Z,11.60
2019-03-30T07:51:12.383Z,13.85
2019-03-30T07:52:15.902Z,13.00
2019-03-30T07:53:26.212Z,13.90
2019-03-30T07:54:24.563Z,13.58
2019-03-30T07:55:27.994Z,13.45
2019-03-30T07:56:31.513Z,12.70
2019-03-30T07:57:34.945Z,13.05
2019-03-30T07:58:38.372Z,12.55
2019-03-30T07:59:41.815Z,11.88
2019-03-30T08:00:45.305Z,14.40
2019-03-30T08:01:48.766Z,13.50
2019-03-30T08:02:52.279Z,12.37
2019-03-30T08:03:55.746Z,14.03
2019-03-30T08:04:59.171Z,12.10
2019-03-30T08:06:02.599Z,13.10
2019-03-30T08:07:06.047Z,13.88
2019-03-30T08:08:09.554Z,13.95
2019-03-30T08:09:13.066Z,13.93
2019-03-30T08:10:16.636Z,13.15
2019-03-30T08:11:20.135Z,15.05
2019-03-30T08:12:23.616Z,13.90
2019-03-30T08:13:27.061Z,14.30
2019-03-30T08:14:30.547Z,13.85
2019-03-30T08:15:33.997Z,14.20
2019-03-30T08:16:37.432Z,13.25
2019-03-30T08:17:40.951Z,12.98
2019-03-30T08:18:44.383Z,13.55
2019-03-30T08:19:50.385Z,13.88
2019-03-30T08:20:53.049Z,15.35
2019-03-30T08:21:56.484Z,14.43
2019-03-30T08:23:00.032Z,13.83
2019-03-30T08:24:03.520Z,14.68
2019-03-30T08:25:07.293Z,15.78
2019-03-30T08:26:10.740Z,14.55
2019-03-30T08:27:14.190Z,15.35
2019-03-30T08:28:17.642Z,13.70
2019-03-30T08:29:21.079Z,13.40
2019-03-30T08:30:24.585Z,13.58
2019-03-30T08:31:28.038Z,14.85
2019-03-30T08:32:31.475Z,14.63
2019-03-30T08:33:34.932Z,13.83
2019-03-30T08:34:38.385Z,13.58
2019-03-30T08:35:41.803Z,14.63
2019-03-30T08:36:45.323Z,22.07
2019-03-30T08:37:48.843Z,17.17
2019-03-30T08:38:52.294Z,17.35
2019-03-30T08:39:55.749Z,19.77
2019-03-30T08:40:59.193Z,16.57
2019-03-30T08:42:02.708Z,14.15
2019-03-30T08:43:06.212Z,15.90
2019-03-30T08:44:09.750Z,15.78
2019-03-30T08:45:13.328Z,15.55
2019-03-30T08:46:16.768Z,16.40
2019-03-30T08:47:20.224Z,15.43
2019-03-30T08:48:23.659Z,16.40
2019-03-30T08:49:27.188Z,16.40
2019-03-30T08:50:30.645Z,15.65
2019-03-30T08:51:34.148Z,17.07
2019-03-30T08:52:37.589Z,17.85
2019-03-30T08:53:53.959Z,18.00
2019-03-30T08:54:46.216Z,16.05
2019-03-30T08:55:49.655Z,17.45
2019-03-30T08:56:53.098Z,16.50
2019-03-30T08:57:56.599Z,17.20
2019-03-30T08:59:00.045Z,18.75
2019-03-30T09:00:04.160Z,17.50
2019-03-30T09:01:07.595Z,17.82
2019-03-30T09:02:11.053Z,17.17
2019-03-30T09:03:14.486Z,17.23
2019-03-30T09:04:17.923Z,16.02
2019-03-30T09:05:21.385Z,16.95
2019-03-30T09:06:24.889Z,17.95
2019-03-30T09:07:28.415Z,17.32
2019-03-30T09:08:32.423Z,15.85
2019-03-30T09:09:35.902Z,17.05
2019-03-30T09:10:39.495Z,17.67
2019-03-30T09:11:43.544Z,17.57
2019-03-30T09:12:47.244Z,16.40
2019-03-30T09:13:50.672Z,18.57
2019-03-30T09:14:54.119Z,18.70
2019-03-30T09:15:57.573Z,18.80
2019-03-30T09:17:01.012Z,17.82
2019-03-30T09:18:04.524Z,18.40
2019-03-30T09:19:07.988Z,18.75
2019-03-30T09:20:11.466Z,18.55
2019-03-30T09:21:14.988Z,17.02
2019-03-30T09:22:18.443Z,17.40
2019-03-30T09:23:21.967Z,18.23
2019-03-30T09:24:25.398Z,19.07
2019-03-30T09:25:28.966Z,17.05
2019-03-30T09:26:32.430Z,18.77
2019-03-30T09:27:35.871Z,18.50
2019-03-30T09:28:39.301Z,17.27
2019-03-30T09:29:42.773Z,18.02
2019-03-30T09:30:46.168Z,16.10
2019-03-30T09:31:49.705Z,16.60
2019-03-30T09:32:53.155Z,18.73
2019-03-30T09:33:56.584Z,17.90
2019-03-30T09:35:00.021Z,18.25
2019-03-30T09:36:03.463Z,19.25
2019-03-30T09:37:06.910Z,18.30
2019-03-30T09:38:10.407Z,17.17
2019-03-30T09:39:13.842Z,19.42
2019-03-30T09:40:17.419Z,18.05
2019-03-30T09:41:20.847Z,19.52
2019-03-30T09:42:24.308Z,18.90
2019-03-30T09:43:27.826Z,17.20
2019-03-30T09:44:31.341Z,18.10
2019-03-30T09:45:34.886Z,18.60
2019-03-30T09:46:38.316Z,18.57
2019-03-30T09:47:41.847Z,18.82
2019-03-30T09:48:45.303Z,18.00
2019-03-30T09:49:48.727Z,18.70
2019-03-30T09:50:52.162Z,18.57
2019-03-30T09:51:55.603Z,18.30
2019-03-30T09:52:59.111Z,19.73
2019-03-30T09:54:02.552Z,19.67
2019-03-30T09:55:07.245Z,16.23
2019-03-30T09:56:10.678Z,19.05
2019-03-30T09:57:14.137Z,17.95
2019-03-30T09:58:17.601Z,17.42
2019-03-30T09:59:21.976Z,16.52
2019-03-30T10:00:25.491Z,17.60
2019-03-30T10:01:28.935Z,19.25
2019-03-30T10:02:32.372Z,16.45
2019-03-30T10:03:35.832Z,16.40
2019-03-30T10:04:39.301Z,18.55
2019-03-30T10:05:42.927Z,19.80
2019-03-30T10:06:46.366Z,19.50
2019-03-30T10:07:49.803Z,17.55
2019-03-30T10:08:53.298Z,17.55
2019-03-30T10:09:56.790Z,18.12
2019-03-30T10:11:00.226Z,16.37
2019-03-30T10:12:03.837Z,18.77
2019-03-30T10:13:07.256Z,18.40
2019-03-30T10:14:10.708Z,17.55
2019-03-30T10:15:14.487Z,17.67
2019-03-30T10:16:17.992Z,17.50
2019-03-30T10:17:21.497Z,16.77
2019-03-30T10:18:24.924Z,16.10
2019-03-30T10:19:28.380Z,16.00
2019-03-30T10:20:31.855Z,17.42
2019-03-30T10:21:35.298Z,17.92
2019-03-30T10:22:42.054Z,15.90
2019-03-30T10:23:43.973Z,16.42
2019-03-30T10:24:47.420Z,16.70
2019-03-30T10:25:50.929Z,18.15
2019-03-30T10:26:54.397Z,17.32
2019-03-30T10:27:57.911Z,17.95
2019-03-30T10:29:01.436Z,18.45
2019-03-30T10:30:07.154Z,17.50
2019-03-30T10:31:10.727Z,16.87
2019-03-30T10:32:14.173Z,15.80
2019-03-30T10:33:17.607Z,16.55
2019-03-30T10:34:21.059Z,15.70
2019-03-30T10:35:24.516Z,16.12
2019-03-30T10:36:27.963Z,17.02
2019-03-30T10:37:31.450Z,16.32
2019-03-30T10:38:34.955Z,16.17
2019-03-30T10:39:38.458Z,17.25
2019-03-30T10:40:41.921Z,16.35
2019-03-30T10:41:45.379Z,15.35
2019-03-30T10:42:48.818Z,16.85
2019-03-30T10:43:52.346Z,16.85
2019-03-30T10:44:55.776Z,16.30
2019-03-30T10:45:59.391Z,17.30
2019-03-30T10:47:02.833Z,16.57
2019-03-30T10:48:06.350Z,17.35
2019-03-30T10:49:09.783Z,18.95
2019-03-30T10:50:13.393Z,18.70
2019-03-30T10:51:16.884Z,18.87
2019-03-30T10:52:20.319Z,16.55
2019-03-30T10:53:23.849Z,16.10
2019-03-30T10:54:27.351Z,18.75
2019-03-30T10:55:30.803Z,17.87
2019-03-30T10:56:34.315Z,18.75
2019-03-30T10:57:37.911Z,18.50
2019-03-30T10:58:41.358Z,16.17
2019-03-30T10:59:44.859Z,16.37
2019-03-30T11:00:48.292Z,16.05
2019-03-30T11:01:51.818Z,16.97
2019-03-30T11:02:55.251Z,16.10
2019-03-30T11:03:58.687Z,16.57
2019-03-30T11:05:02.128Z,17.82
2019-03-30T11:06:05.565Z,16.90
2019-03-30T11:07:09.089Z,16.97
2019-03-30T11:08:12.588Z,15.45
2019-03-30T11:09:16.016Z,15.88
2019-03-30T11:10:19.458Z,15.10
2019-03-30T11:11:22.887Z,15.90
2019-03-30T11:12:26.339Z,17.05
2019-03-30T11:13:29.769Z,17.20
2019-03-30T11:14:33.198Z,15.58
2019-03-30T11:15:36.638Z,15.35
2019-03-30T11:16:40.075Z,14.53
2019-03-30T11:17:43.543Z,16.10
2019-03-30T11:18:46.986Z,16.12
2019-03-30T11:19:50.423Z,16.27
2019-03-30T11:20:53.919Z,15.68
2019-03-30T11:21:57.356Z,16.90
2019-03-30T11:23:00.880Z,15.83
2019-03-30T11:24:06.709Z,15.90
2019-03-30T11:25:09.644Z,15.25
2019-03-30T11:26:13.101Z,16.52
2019-03-30T11:27:16.602Z,16.07
2019-03-30T11:28:20.059Z,17.00
2019-03-30T11:29:23.492Z,16.97
2019-03-30T11:30:26.926Z,17.50
2019-03-30T11:31:30.427Z,16.07
2019-03-30T11:32:33.930Z,17.92
2019-03-30T11:33:37.374Z,18.25
2019-03-30T11:34:40.869Z,16.70
2019-03-30T11:35:44.317Z,16.65
2019-03-30T11:36:47.751Z,17.45
2019-03-30T11:37:51.259Z,15.90
2019-03-30T11:38:54.723Z,16.97
2019-03-30T11:39:58.189Z,16.67
2019-03-30T11:41:01.651Z,16.60
2019-03-30T11:42:05.220Z,17.95
2019-03-30T11:43:08.648Z,16.97
2019-03-30T11:44:12.166Z,17.65
2019-03-30T11:45:15.693Z,16.42
2019-03-30T11:46:19.219Z,17.30
2019-03-30T11:47:22.660Z,17.40
2019-03-30T11:48:26.353Z,17.23
2019-03-30T11:49:29.876Z,18.77
2019-03-30T11:50:33.397Z,18.85
2019-03-30T11:51:36.900Z,18.80
2019-03-30T11:52:40.404Z,17.10
2019-03-30T11:53:43.874Z,17.40
2019-03-30T11:54:47.328Z,15.98
2019-03-30T11:55:50.896Z,16.50
2019-03-30T11:56:54.392Z,15.13
2019-03-30T11:57:57.855Z,16.62
2019-03-30T11:59:01.432Z,16.37
2019-03-30T12:00:06.293Z,15.20
2019-03-30T12:01:09.873Z,15.50
2019-03-30T12:02:26.946Z,15.55
2019-03-30T12:03:18.683Z,16.35
2019-03-30T12:04:22.139Z,14.85
2019-03-30T12:05:25.671Z,14.98
2019-03-30T12:06:29.182Z,19.07
2019-03-30T12:07:32.691Z,16.32
2019-03-30T12:08:36.186Z,16.95
2019-03-30T12:09:39.786Z,16.57
2019-03-30T12:10:43.370Z,15.05
2019-03-30T12:11:46.872Z,17.40
2019-03-30T12:12:50.309Z,18.12
2019-03-30T12:13:54.000Z,16.93
2019-03-30T12:14:57.499Z,16.73
2019-03-30T12:16:01.093Z,15.13
2019-03-30T12:17:04.688Z,15.38
2019-03-30T12:18:08.262Z,19.57
2019-03-30T12:19:11.764Z,30.68
2019-03-30T12:20:15.333Z,26.50
2019-03-30T12:21:18.932Z,73.92
2019-03-30T12:22:22.380Z,21.00
2019-03-30T12:23:25.984Z,21.77
2019-03-30T12:24:29.431Z,16.42
2019-03-30T12:25:35.731Z,16.35
2019-03-30T12:26:38.274Z,15.28
2019-03-30T12:27:41.910Z,15.15
2019-03-30T12:28:45.425Z,14.47
2019-03-30T12:29:48.874Z,15.38
2019-03-30T12:30:52.400Z,15.13
2019-03-30T12:31:55.939Z,15.60
2019-03-30T12:32:59.461Z,15.13
2019-03-30T12:34:02.888Z,15.40
2019-03-30T12:35:08.065Z,16.50
2019-03-30T12:36:11.580Z,16.23
2019-03-30T12:37:15.041Z,19.40
2019-03-30T12:38:18.542Z,17.40
2019-03-30T12:39:22.042Z,16.30
2019-03-30T12:40:25.583Z,16.30
2019-03-30T12:41:29.083Z,17.57
2019-03-30T12:42:32.877Z,15.70
2019-03-30T12:43:38.886Z,17.50
2019-03-30T12:44:41.516Z,16.70
2019-03-30T12:45:45.117Z,18.00
2019-03-30T12:46:48.565Z,14.80
2019-03-30T12:47:52.011Z,14.90
2019-03-30T12:48:55.452Z,15.93
2019-03-30T12:49:58.892Z,14.87
2019-03-30T12:51:02.326Z,14.53
2019-03-30T12:52:05.829Z,15.90
2019-03-30T12:53:09.357Z,15.93
2019-03-30T12:54:12.868Z,14.67
2019-03-30T12:55:16.372Z,15.57
2019-03-30T12:56:19.803Z,15.70
2019-03-30T12:57:23.238Z,15.00
2019-03-30T12:58:26.776Z,14.87
2019-03-30T12:59:30.220Z,16.37
2019-03-30T13:00:33.649Z,15.20
2019-03-30T13:01:37.176Z,15.60
2019-03-30T13:02:40.581Z,15.80
2019-03-30T13:03:44.031Z,17.20
2019-03-30T13:04:47.483Z,15.00
2019-03-30T13:05:50.924Z,14.10
2019-03-30T13:06:54.437Z,16.30
2019-03-30T13:07:57.871Z,17.33
2019-03-30T13:09:01.337Z,16.63
2019-03-30T13:10:07.006Z,15.60
2019-03-30T13:11:10.455Z,16.67
2019-03-30T13:12:13.962Z,15.10
2019-03-30T13:13:17.403Z,13.50
2019-03-30T13:14:20.851Z,15.47
2019-03-30T13:15:24.354Z,14.87
2019-03-30T13:16:27.783Z,14.53
2019-03-30T13:17:31.224Z,14.63
2019-03-30T13:18:34.666Z,13.80
2019-03-30T13:19:38.115Z,13.67
2019-03-30T13:20:41.562Z,13.93
2019-03-30T13:21:52.552Z,14.87
2019-03-30T13:22:50.164Z,14.30
2019-03-30T13:23:53.679Z,13.50
2019-03-30T13:24:57.129Z,14.30
2019-03-30T13:26:03.768Z,14.60
2019-03-30T13:27:05.816Z,14.53
2019-03-30T13:28:09.348Z,14.43
2019-03-30T13:29:12.788Z,15.53
2019-03-30T13:30:16.775Z,15.73
2019-03-30T13:31:20.224Z,14.43
2019-03-30T13:32:23.653Z,14.77
2019-03-30T13:33:30.168Z,15.77
2019-03-30T13:34:33.604Z,21.80
2019-03-30T13:35:37.063Z,18.40
2019-03-30T13:36:41.775Z,23.70
2019-03-30T13:37:45.216Z,14.30
2019-03-30T13:38:48.720Z,13.13
2019-03-30T13:39:52.168Z,12.67